METAR Data
IDs: Format: Raw Decoded Include TAF

Data at: 0111 UTC 06 Dec 2019

KCUB 060053Z AUTO 00000KT 10SM CLR 08/02 A3018 RMK AO2 SLP221 T00780017
KCUB 052353Z AUTO 00000KT 10SM CLR 09/02 A3017 RMK AO2 SLP214 T00890022 10189 20089 53020
KCUB 052253Z AUTO 00000KT 10SM CLR 11/02 A3015 RMK AO2 SLP207 T01110022
KCUB 052153Z AUTO 00000KT 10SM CLR 17/M03 A3012 RMK AO2 SLP199 T01721028
KCUB 052053Z AUTO VRB03KT 10SM CLR 18/M03 A3010 RMK AO2 SLP193 T01831028 53000
KCUB 051953Z AUTO 16005KT 10SM CLR 18/M03 A3009 RMK AO2 SLP188 T01781033
KCUB 051853Z AUTO 25006KT 10SM CLR 17/M03 A3009 RMK AO2 SLP190 T01721028
KCUB 051753Z AUTO 00000KT 10SM CLR 17/M03 A3010 RMK AO2 SLP194 T01671028 10167 20028 58003
KCUB 051653Z AUTO 28003KT 10SM CLR 16/M02 A3012 RMK AO2 SLP197 T01561022
KCUB 051553Z AUTO 29006KT 10SM CLR 15/M02 A3013 RMK AO2 SLP202 T01501022
KCUB 051453Z AUTO 32006KT 10SM CLR 13/00 A3011 RMK AO2 SLP196 T01280000 53031
KCUB 051353Z AUTO 00000KT 10SM CLR 07/02 A3008 RMK AO2 SLP184 T00720022
KCUB 051253Z AUTO 00000KT 10SM CLR 04/01 A3005 RMK AO2 SLP176 T00440011
KCUB 051153Z AUTO 00000KT 10SM CLR 03/01 A3002 RMK AO2 SLP165 T00330006 10106 20033 53026
KCUB 051053Z AUTO 00000KT 10SM CLR 04/00 A2999 RMK AO2 SLP156 T00390000
KCUB 050953Z AUTO 00000KT 10SM CLR 06/00 A2996 RMK AO2 SLP145 T00560000
KCUB 050753Z AUTO 28005KT 10SM CLR 10/M01 A2991 RMK AO2 SLP126 T01001011
KCUB 050653Z AUTO 24005KT 10SM CLR 09/M01 A2989 RMK AO2 SLP121 T00891006
KCUB 050553Z AUTO 23005KT 10SM CLR 07/01 A2989 RMK AO2 SLP120 T00670006 10117 20061 50007
KCUB 050453Z AUTO 22004KT 10SM CLR 09/M01 A2989 RMK AO2 SLP121 T00891011 401670017
KCUB 050353Z AUTO 00000KT 10SM CLR 09/M01 A2988 RMK AO2 SLP118 T00941011
KCUB 050253Z AUTO 28004KT 10SM CLR 12/M01 A2987 RMK AO2 SLP113 T01171011 51014
KCUB 050153Z AUTO 27004KT 10SM CLR 12/00 A2986 RMK AO2 SLP109 T01170000
KCUB 050053Z AUTO 25005KT 10SM CLR 12/00 A2984 RMK AO2 SLP104 T01170000
KCUB 042353Z AUTO 00000KT 10SM CLR 10/01 A2983 RMK AO2 SLP099 T01000011 10167 20100 53016
KCUB 042253Z AUTO 24003KT 10SM CLR 14/M01 A2981 RMK AO2 SLP094 T01391006
KCUB 042153Z AUTO 27010KT 10SM CLR 16/M01 A2979 RMK AO2 SLP087 T01561011
KCUB 042053Z AUTO 27011KT 10SM CLR 17/M01 A2978 RMK AO2 SLP083 T01671011 55003
KCUB 041953Z AUTO 26007KT 10SM CLR 16/M01 A2977 RMK AO2 SLP080 T01611006
KCUB 041853Z AUTO 25011KT 10SM CLR 15/M01 A2977 RMK AO2 SLP081 T01501011
KCUB 041753Z AUTO 28008KT 10SM CLR 14/M03 A2979 RMK AO2 SLP086 T01391028 10139 20017 58025
KCUB 041653Z AUTO 26006KT 10SM CLR 12/M03 A2982 RMK AO2 SLP096 T01221028
KCUB 041553Z AUTO 25004KT 10SM CLR 11/M02 A2985 RMK AO2 SLP108 T01061017
KCUB 041453Z AUTO 27006KT 10SM CLR 09/M01 A2986 RMK AO2 SLP111 T00941011 51016
KCUB 041353Z AUTO 28006KT 10SM CLR 07/M01 A2986 RMK AO2 SLP110 T00671011